Time;durP1;ratioP1;P1;durP2;ratioP2;P2;SDS_P1;SDS_P2;PMS_P1;PMS_P2;Temp;Humidity;BMP_temperature;BMP_pressure;BME280_temperature;BME280_humidity;BME280_pressure;Samples;Min_cycle;Max_cycle;Signal;HPM_P1;HPM_P2
2022/05/09 00:00:06;;;;;;;7.60;1.67;;;;;;;11.51;61.31;102756.59;5075176;28;20052;-34
2022/05/09 00:02:32;;;;;;;7.00;2.05;;;;;;;11.35;61.63;102764.97;5075434;28;20210;-34
2022/05/09 00:04:57;;;;;;;5.20;2.10;;;;;;;11.20;62.28;102766.84;5073769;28;20143;-34
2022/05/09 00:07:23;;;;;;;6.65;2.05;;;;;;;11.17;62.76;102756.38;5075051;28;20274;-34
2022/05/09 00:09:48;;;;;;;7.50;2.07;;;;;;;10.83;62.65;102720.78;5075381;28;20528;-34
2022/05/09 00:12:13;;;;;;;6.50;2.13;;;;;;;11.06;63.18;102757.69;5074771;28;20020;-35
2022/05/09 00:14:39;;;;;;;6.43;1.83;;;;;;;11.13;63.48;102752.41;5074846;28;20028;-34
2022/05/09 00:17:05;;;;;;;6.40;1.70;;;;;;;11.06;63.56;102746.88;5074547;28;20484;-34
2022/05/09 00:19:30;;;;;;;7.95;2.47;;;;;;;11.03;64.24;102748.09;5075334;28;20029;-34
2022/05/09 00:21:56;;;;;;;7.57;2.42;;;;;;;11.06;63.89;102750.41;5075175;28;20032;-34
2022/05/09 00:24:22;;;;;;;7.43;1.83;;;;;;;11.04;63.94;102738.94;5074544;28;20060;-34
2022/05/09 00:26:50;;;;;;;3.67;1.90;;;;;;;10.93;64.29;102746.69;5074333;28;20029;-34
2022/05/09 00:29:17;;;;;;;7.82;2.42;;;;;;;10.82;64.11;102745.28;5074703;28;20044;-34
2022/05/09 00:31:45;;;;;;;6.47;2.72;;;;;;;10.90;64.49;102747.06;5074801;28;20027;-35
2022/05/09 00:34:11;;;;;;;4.82;1.90;;;;;;;10.77;64.16;102747.72;5074454;28;20056;-34
2022/05/09 00:36:38;;;;;;;9.48;2.28;;;;;;;10.69;65.42;102734.28;5075240;28;20202;-34
2022/05/09 00:39:04;;;;;;;8.80;2.13;;;;;;;10.73;64.74;102744.53;5074025;28;20028;-34
2022/05/09 00:41:37;;;;;;;;;;;;;;;10.97;63.52;102751.53;5075526;28;20032;-34
2022/05/09 00:44:05;;;;;;;7.25;2.20;;;;;;;10.68;65.39;102735.28;5074968;28;20302;-34
2022/05/09 00:46:30;;;;;;;7.00;2.50;;;;;;;10.82;65.36;102748.84;5074050;28;20028;-34
2022/05/09 00:49:03;;;;;;;5.27;2.00;;;;;;;10.82;65.21;102742.59;5073915;28;20040;-34
2022/05/09 00:51:29;;;;;;;7.55;2.25;;;;;;;10.75;65.19;102744.38;5074701;28;20441;-34
2022/05/09 00:54:00;;;;;;;8.30;2.28;;;;;;;10.75;65.56;102733.53;5073975;28;20047;-34
2022/05/09 00:56:38;;;;;;;8.40;2.35;;;;;;;10.57;65.78;102737.44;5074206;28;20142;-34
2022/05/09 00:59:13;;;;;;;9.95;2.65;;;;;;;10.57;66.28;102732.03;5074700;28;20048;-34
2022/05/09 01:01:39;;;;;;;7.53;2.25;;;;;;;10.60;66.19;102735.41;5074616;28;20107;-34
2022/05/09 01:04:19;;;;;;;4.05;2.13;;;;;;;10.66;65.78;102740.06;5073692;28;20024;-34
2022/05/09 01:06:45;;;;;;;5.80;1.95;;;;;;;10.54;66.29;102721.59;5073547;28;20094;-34
2022/05/09 01:09:11;;;;;;;7.78;2.42;;;;;;;10.48;66.75;102735.00;5073795;28;20033;-34
2022/05/09 01:11:40;;;;;;;5.93;2.10;;;;;;;10.42;67.38;102720.34;5075055;28;20135;-34
2022/05/09 01:14:14;;;;;;;8.05;2.60;;;;;;;10.39;66.82;102711.75;5073723;28;20036;-34
2022/05/09 01:16:40;;;;;;;6.93;2.00;;;;;;;10.38;67.33;102720.91;5073348;28;20032;-34
2022/05/09 01:19:20;;;;;;;10.80;2.33;;;;;;;10.36;66.87;102717.56;5071937;28;20040;-34
2022/05/09 01:21:45;;;;;;;7.53;2.47;;;;;;;10.29;67.54;102720.97;5072720;28;20032;-35
2022/05/09 01:24:22;;;;;;;8.32;2.63;;;;;;;10.34;66.89;102720.41;5073639;28;20457;-34
2022/05/09 01:26:47;;;;;;;;;;;;;;;10.53;64.89;102719.06;5073602;28;20032;-34
2022/05/09 01:29:40;;;;;;;6.57;2.58;;;;;;;10.36;66.27;102728.38;5074001;28;19924;-34
2022/05/09 01:32:10;;;;;;;9.10;2.45;;;;;;;10.27;67.83;102714.09;5070039;28;20401;-34
2022/05/09 01:34:38;;;;;;;7.50;2.67;;;;;;;10.30;67.65;102722.69;5074338;28;20033;-34
2022/05/09 01:37:07;;;;;;;9.38;2.85;;;;;;;10.17;68.30;102718.88;5073039;28;20021;-34
2022/05/09 01:39:33;;;;;;;8.35;2.40;;;;;;;10.02;68.46;102716.97;5073156;28;20127;-34
2022/05/09 01:42:04;;;;;;;8.63;2.40;;;;;;;10.03;68.46;102718.66;5073687;28;20116;-34
2022/05/09 01:44:29;;;;;;;8.35;2.47;;;;;;;10.04;68.64;102706.81;5073393;28;20051;-34
2022/05/09 01:49:40;;;;;;;6.55;2.58;;;;;;;9.88;69.32;102712.34;5073168;28;20249;-34
2022/05/09 01:52:08;;;;;;;7.28;2.80;;;;;;;9.80;70.60;102715.94;5072864;28;20021;-34
2022/05/09 01:54:34;;;;;;;9.70;2.47;;;;;;;9.86;70.12;102717.09;5073304;28;20064;-34
2022/05/09 01:57:00;;;;;;;6.65;2.30;;;;;;;9.75;69.87;102717.50;5072789;28;20111;-34
2022/05/09 01:59:26;;;;;;;6.40;2.37;;;;;;;9.83;70.14;102709.34;5072703;28;20179;-34
2022/05/09 02:01:54;;;;;;;6.93;2.20;;;;;;;9.78;69.74;102719.88;5073427;28;20341;-34
2022/05/09 02:04:20;;;;;;;6.03;2.38;;;;;;;9.62;70.33;102701.91;5072898;28;20035;-34
2022/05/09 02:06:46;;;;;;;8.82;2.80;;;;;;;9.66;70.22;102715.88;5073420;28;20024;-34
2022/05/09 02:09:12;;;;;;;10.10;2.60;;;;;;;9.76;70.67;102717.34;5072857;28;20449;-34
2022/05/09 02:11:38;;;;;;;6.35;2.45;;;;;;;9.71;69.08;102708.94;5072911;28;20054;-34
2022/05/09 02:14:04;;;;;;;8.27;2.67;;;;;;;9.65;70.39;102700.69;5073532;28;20058;-34
2022/05/09 02:16:30;;;;;;;7.80;2.17;;;;;;;9.70;70.58;102711.81;5073598;28;20413;-34
2022/05/09 02:18:55;;;;;;;7.18;2.30;;;;;;;9.71;70.69;102708.06;5072791;28;20457;-34
2022/05/09 02:21:21;;;;;;;5.82;2.35;;;;;;;9.61;71.27;102719.13;5072196;28;20051;-34
2022/05/09 02:23:47;;;;;;;10.02;2.65;;;;;;;9.49;70.33;102709.75;5072980;28;20035;-34
2022/05/09 02:26:13;;;;;;;5.93;2.50;;;;;;;9.59;71.36;102714.94;5073030;28;20028;-34
2022/05/09 02:28:38;;;;;;;8.20;2.63;;;;;;;9.47;71.53;102709.94;5072811;28;20388;-34
2022/05/09 02:31:04;;;;;;;7.28;2.38;;;;;;;9.42;71.52;102706.94;5073985;28;20043;-34
2022/05/09 02:33:29;;;;;;;6.33;2.40;;;;;;;9.35;72.00;102686.22;5076977;28;20028;-34
2022/05/09 02:35:55;;;;;;;9.80;2.73;;;;;;;9.30;71.35;102700.25;5076957;28;20339;-34
2022/05/09 02:38:20;;;;;;;7.25;2.25;;;;;;;9.35;71.95;102703.25;5077211;28;20449;-34
2022/05/09 02:40:46;;;;;;;8.18;2.65;;;;;;;9.27;71.94;102692.50;5076941;28;20056;-34
2022/05/09 02:43:12;;;;;;;9.70;2.93;;;;;;;9.22;72.51;102697.56;5076503;28;20029;-34
2022/05/09 02:45:38;;;;;;;10.07;2.80;;;;;;;9.22;72.62;102701.16;5077296;28;20723;-34
2022/05/09 02:48:05;;;;;;;7.78;2.58;;;;;;;9.23;72.42;102710.09;5077264;28;20032;-34
2022/05/09 02:50:30;;;;;;;8.85;3.08;;;;;;;9.18;73.13;102707.06;5076982;28;20104;-34
2022/05/09 02:52:56;;;;;;;10.53;2.70;;;;;;;9.08;72.82;102688.41;5076774;28;20112;-34
2022/05/09 02:55:22;;;;;;;;;;;;;;;9.38;70.59;102708.31;5076563;28;20070;-34
2022/05/09 02:57:47;;;;;;;4.55;2.20;;;;;;;9.18;72.87;102707.06;5076228;28;20006;-35
2022/05/09 03:00:19;;;;;;;10.18;3.05;;;;;;;9.08;73.18;102703.72;5076386;28;20358;-34
2022/05/09 03:04:38;;;;;;;7.47;2.85;;;;;;;9.07;72.82;102702.03;5075829;28;20070;-34
2022/05/09 03:05:31;;;;;;;9.05;2.42;;;;;;;9.05;73.30;102704.09;5075903;28;20044;-34
2022/05/09 03:07:57;;;;;;;;;;;;;;;9.25;70.71;102695.38;5076792;28;20024;-34
2022/05/09 03:10:23;;;;;;;6.93;2.42;;;;;;;9.01;73.07;102690.94;5075736;28;19915;-34
2022/05/09 03:12:49;;;;;;;9.60;2.88;;;;;;;8.99;73.02;102687.59;5076033;28;20028;-34
2022/05/09 03:15:15;;;;;;;;;;;;;;;9.18;70.49;102693.56;5076012;28;20438;-34
2022/05/09 03:17:40;;;;;;;9.40;2.78;;;;;;;8.94;73.29;102689.97;5076156;28;19912;-34
2022/05/09 03:20:06;;;;;;;10.87;2.77;;;;;;;8.82;73.64;102685.13;5076315;28;20052;-34
2022/05/09 03:22:31;;;;;;;6.28;2.70;;;;;;;8.87;73.48;102691.66;5075814;28;20033;-34
2022/05/09 03:24:57;;;;;;;10.80;3.23;;;;;;;8.80;74.18;102679.91;5075759;28;20028;-34
2022/05/09 03:27:22;;;;;;;8.50;3.10;;;;;;;8.90;74.29;102687.78;5075512;28;20093;-34
2022/05/09 03:29:47;;;;;;;10.13;3.10;;;;;;;8.83;74.23;102681.41;5076402;28;20040;-34
2022/05/09 03:32:13;;;;;;;7.23;2.80;;;;;;;8.77;73.93;102678.38;5076448;28;20031;-34
2022/05/09 03:34:38;;;;;;;8.43;2.57;;;;;;;8.73;74.17;102687.00;5076060;28;20036;-34
2022/05/09 03:37:06;;;;;;;7.53;2.53;;;;;;;8.68;74.94;102687.50;5075698;28;20124;-34
2022/05/09 03:39:31;;;;;;;5.45;2.90;;;;;;;8.51;74.87;102670.56;5075504;28;20035;-34
2022/05/09 03:41:57;;;;;;;7.57;2.40;;;;;;;8.50;75.06;102660.78;5075076;28;20384;-34
2022/05/09 03:44:22;;;;;;;5.07;2.53;;;;;;;8.65;75.22;102679.78;5075167;28;20329;-34
2022/05/09 03:46:47;;;;;;;6.73;2.53;;;;;;;8.67;74.96;102677.75;5075744;28;20028;-34
2022/05/09 03:49:14;;;;;;;6.50;2.70;;;;;;;8.52;74.98;102664.16;5075325;28;20417;-34
2022/05/09 03:51:39;;;;;;;6.70;2.67;;;;;;;8.61;74.94;102675.75;5075536;28;20029;-34
2022/05/09 03:54:05;;;;;;;6.30;2.83;;;;;;;8.52;75.16;102679.50;5075396;28;20059;-34
2022/05/09 03:56:30;;;;;;;9.05;3.42;;;;;;;8.50;74.93;102655.41;5075516;28;20566;-34
2022/05/09 03:58:56;;;;;;;5.53;3.10;;;;;;;8.61;75.78;102681.16;5074946;28;20112;-34
2022/05/09 04:01:21;;;;;;;8.50;2.90;;;;;;;8.56;75.26;102682.69;5074817;28;20039;-34
2022/05/09 04:03:46;;;;;;;6.73;2.87;;;;;;;8.52;75.26;102674.09;5074979;28;20033;-34
2022/05/09 04:06:13;;;;;;;6.75;2.88;;;;;;;8.52;75.56;102674.94;5075300;28;20054;-34
2022/05/09 04:08:38;;;;;;;8.85;2.90;;;;;;;8.57;75.73;102687.06;5074970;28;20055;-34
2022/05/09 04:11:03;;;;;;;7.17;2.80;;;;;;;8.50;75.46;102687.75;5074979;28;20479;-34
2022/05/09 04:13:29;;;;;;;7.70;3.20;;;;;;;8.47;75.85;102688.09;5075443;28;20122;-34
2022/05/09 04:18:41;;;;;;;8.27;2.55;;;;;;;8.35;76.08;102686.75;5075341;28;20039;-35
2022/05/09 04:21:09;;;;;;;6.30;2.70;;;;;;;8.33;75.77;102674.44;5074764;28;20033;-34
2022/05/09 04:23:34;;;;;;;7.88;2.85;;;;;;;8.29;76.93;102668.53;5074625;28;20066;-34
2022/05/09 04:26:01;;;;;;;9.85;3.90;;;;;;;8.33;76.45;102675.28;5075147;28;20082;-34
2022/05/09 04:28:26;;;;;;;5.28;2.60;;;;;;;8.26;77.05;102641.97;5074524;28;20166;-34
2022/05/09 04:30:52;;;;;;;8.50;3.47;;;;;;;8.40;76.85;102676.31;5074318;28;20084;-34
2022/05/09 04:33:19;;;;;;;10.57;3.28;;;;;;;8.34;76.74;102654.56;5074189;28;20097;-34
2022/05/09 04:35:45;;;;;;;14.02;3.95;;;;;;;8.33;76.80;102677.13;5075183;28;20119;-34
2022/05/09 04:38:22;;;;;;;8.45;3.35;;;;;;;8.31;77.87;102679.19;5074797;28;20047;-34
2022/05/09 04:40:51;;;;;;;8.48;3.10;;;;;;;8.32;77.02;102670.91;5074631;28;20468;-34
2022/05/09 04:43:19;;;;;;;9.40;3.20;;;;;;;8.39;77.53;102669.22;5074267;28;20029;-35
2022/05/09 04:45:44;;;;;;;7.82;3.35;;;;;;;8.23;77.28;102653.91;5074361;28;20025;-35
2022/05/09 04:48:09;;;;;;;10.50;3.77;;;;;;;8.41;78.10;102669.91;5074468;28;20043;-34
2022/05/09 04:50:35;;;;;;;8.60;3.00;;;;;;;8.47;77.02;102666.53;5074143;28;20774;-35
2022/05/09 04:53:00;;;;;;;9.27;3.03;;;;;;;8.55;76.86;102672.91;5073498;28;20028;-35
2022/05/09 04:55:26;;;;;;;8.57;3.38;;;;;;;8.60;77.32;102671.38;5074235;28;20090;-34
2022/05/09 04:57:52;;;;;;;9.63;3.10;;;;;;;8.59;77.05;102653.53;5074338;28;20333;-34
2022/05/09 05:00:20;;;;;;;6.45;3.20;;;;;;;8.69;76.17;102656.03;5074013;28;20381;-35
2022/05/09 05:02:46;;;;;;;7.65;3.20;;;;;;;8.74;77.56;102650.94;5073504;28;20503;-35
2022/05/09 05:05:12;;;;;;;6.15;3.10;;;;;;;8.82;77.21;102656.28;5074562;28;20028;-35
2022/05/09 05:07:37;;;;;;;12.38;3.80;;;;;;;8.79;77.71;102658.50;5074035;28;20461;-35
2022/05/09 05:10:04;;;;;;;13.53;3.83;;;;;;;8.79;77.02;102653.13;5074018;28;20051;-35
2022/05/09 05:12:29;;;;;;;10.40;3.70;;;;;;;8.81;77.14;102657.31;5073283;28;20338;-35
2022/05/09 05:14:55;;;;;;;9.20;3.45;;;;;;;8.90;76.42;102642.78;5072693;28;20036;-35
2022/05/09 05:17:20;;;;;;;10.57;3.67;;;;;;;8.92;77.05;102642.59;5073817;28;20032;-34
2022/05/09 05:19:47;;;;;;;9.27;3.30;;;;;;;9.03;77.26;102656.53;5073361;28;20060;-35
2022/05/09 05:22:15;;;;;;;7.82;3.28;;;;;;;9.13;76.96;102650.91;5074056;28;20338;-35
2022/05/09 05:24:43;;;;;;;8.55;3.55;;;;;;;9.09;75.73;102657.69;5073381;28;20056;-35
2022/05/09 05:27:09;;;;;;;6.72;3.50;;;;;;;9.20;75.44;102656.44;5074048;28;20029;-35
2022/05/09 05:29:35;;;;;;;10.80;3.75;;;;;;;9.32;75.64;102665.81;5074096;28;20358;-35
2022/05/09 05:32:01;;;;;;;11.52;4.18;;;;;;;9.45;75.07;102662.53;5074250;28;20419;-35
2022/05/09 05:34:26;;;;;;;7.78;3.53;;;;;;;9.52;74.65;102652.69;5073375;28;20111;-35
2022/05/09 05:36:51;;;;;;;7.53;3.70;;;;;;;9.59;75.03;102653.66;5073625;28;20099;-35
2022/05/09 05:39:18;;;;;;;11.87;4.50;;;;;;;9.42;74.35;102639.44;5073189;28;20495;-35
2022/05/09 05:41:44;;;;;;;11.38;3.40;;;;;;;9.68;74.09;102665.22;5073495;28;20032;-35
2022/05/09 05:44:13;;;;;;;8.85;3.72;;;;;;;9.76;75.31;102663.31;5073031;28;20035;-35
2022/05/09 05:46:42;;;;;;;11.35;4.65;;;;;;;9.82;73.67;102661.75;5073353;28;20032;-35
2022/05/09 05:49:08;;;;;;;9.25;3.53;;;;;;;9.96;74.20;102644.72;5073508;28;20067;-35
2022/05/09 05:51:35;;;;;;;12.15;3.78;;;;;;;10.16;73.14;102653.16;5072796;28;20027;-34
2022/05/09 05:54:01;;;;;;;9.32;3.80;;;;;;;10.20;71.68;102648.19;5072899;28;20115;-34
2022/05/09 05:56:26;;;;;;;11.30;3.93;;;;;;;10.19;72.10;102655.47;5072734;28;20123;-34
2022/05/09 05:58:52;;;;;;;9.37;4.33;;;;;;;10.28;72.67;102656.25;5073002;28;20337;-34
2022/05/09 06:01:18;;;;;;;9.53;3.60;;;;;;;10.39;72.25;102653.09;5073028;28;20024;-34
2022/05/09 06:03:44;;;;;;;10.90;3.90;;;;;;;10.41;71.45;102650.22;5073508;28;20115;-34
2022/05/09 06:06:09;;;;;;;9.73;4.00;;;;;;;10.37;71.04;102625.41;5072344;28;20492;-34
2022/05/09 06:08:38;;;;;;;13.17;3.93;;;;;;;10.55;71.76;102658.34;5072611;28;20123;-34
2022/05/09 06:11:07;;;;;;;8.90;3.72;;;;;;;10.42;71.00;102651.91;5072778;28;20263;-34
2022/05/09 06:13:33;;;;;;;8.23;3.85;;;;;;;10.58;71.07;102644.44;5072759;28;20032;-34
2022/05/09 06:15:59;;;;;;;10.68;3.70;;;;;;;10.83;71.30;102638.72;5073166;28;20423;-34
2022/05/09 06:18:24;;;;;;;10.27;4.05;;;;;;;10.89;70.87;102648.81;5073557;28;20040;-34
2022/05/09 06:20:51;;;;;;;8.52;4.28;;;;;;;11.08;69.89;102653.63;5072169;28;20028;-34
2022/05/09 06:23:19;;;;;;;13.65;4.10;;;;;;;11.26;69.47;102652.34;5072561;28;20457;-34
2022/05/09 06:25:47;;;;;;;9.65;3.75;;;;;;;11.39;69.25;102641.66;5072476;28;20029;-33
2022/05/09 06:28:17;;;;;;;11.20;4.43;;;;;;;11.60;67.88;102647.06;5072869;28;20384;-34
2022/05/09 06:30:44;;;;;;;11.82;4.10;;;;;;;11.66;66.90;102655.44;5073216;28;20048;-34
2022/05/09 06:33:09;;;;;;;13.98;4.75;;;;;;;11.67;65.91;102649.03;5072281;28;20024;-34
2022/05/09 06:35:41;;;;;;;9.32;4.00;;;;;;;11.74;68.18;102647.19;5071541;28;20108;-35
2022/05/09 06:38:07;;;;;;;10.45;4.28;;;;;;;11.88;67.47;102648.19;5072754;28;20029;-35
2022/05/09 06:40:35;;;;;;;11.48;4.18;;;;;;;11.89;65.18;102649.88;5072500;28;20038;-35
2022/05/09 06:43:03;;;;;;;9.25;3.67;;;;;;;11.94;64.93;102645.53;5072097;28;20039;-35
2022/05/09 06:45:29;;;;;;;6.63;3.60;;;;;;;12.05;64.74;102642.28;5072285;28;20469;-35
2022/05/09 06:47:55;;;;;;;;;;;;;;;12.14;64.31;102642.13;5072775;28;20031;-35
2022/05/09 06:50:23;;;;;;;8.13;3.08;;;;;;;12.32;64.97;102642.47;5072882;28;20418;-35
2022/05/09 06:52:48;;;;;;;12.85;4.28;;;;;;;12.42;63.99;102640.22;5072151;28;20441;-35
2022/05/09 06:55:14;;;;;;;9.65;3.75;;;;;;;12.63;63.96;102625.72;5072190;28;20115;-35
2022/05/09 06:57:41;;;;;;;12.75;4.00;;;;;;;12.75;63.32;102639.59;5071859;28;20032;-34
2022/05/09 07:00:10;;;;;;;8.68;3.63;;;;;;;12.82;63.03;102626.88;5072958;28;20028;-34
2022/05/09 07:02:36;;;;;;;7.97;3.28;;;;;;;12.98;61.58;102640.09;5072094;28;20109;-34
2022/05/09 07:05:04;;;;;;;13.23;3.97;;;;;;;13.09;61.37;102641.38;5072683;28;20028;-34
2022/05/09 07:07:29;;;;;;;10.38;3.70;;;;;;;13.13;61.16;102623.66;5072175;28;20028;-35
2022/05/09 07:09:55;;;;;;;9.68;3.60;;;;;;;13.27;61.96;102633.50;5071953;28;20404;-34
2022/05/09 07:12:20;;;;;;;11.53;3.70;;;;;;;13.27;60.10;102619.09;5071703;28;20032;-35
2022/05/09 07:14:45;;;;;;;8.83;3.63;;;;;;;13.33;61.09;102619.13;5072156;28;20457;-34
2022/05/09 07:17:11;;;;;;;10.48;3.75;;;;;;;13.55;60.78;102621.66;5073682;28;20024;-35
2022/05/09 07:19:36;;;;;;;13.60;4.00;;;;;;;13.45;59.92;102607.63;5075919;28;20035;-34
2022/05/09 07:22:01;;;;;;;10.60;4.18;;;;;;;13.47;59.66;102611.84;5075935;28;20056;-34
2022/05/09 07:24:27;;;;;;;10.80;3.83;;;;;;;13.47;60.32;102606.41;5075690;28;20056;-34
2022/05/09 07:26:52;;;;;;;10.17;3.37;;;;;;;13.57;59.08;102623.13;5075560;28;20464;-34
2022/05/09 07:29:17;;;;;;;7.67;3.33;;;;;;;13.71;60.27;102629.38;5074220;28;20051;-34
2022/05/09 07:31:43;;;;;;;10.13;3.87;;;;;;;13.83;59.79;102627.72;5075617;28;20281;-34
2022/05/09 07:34:08;;;;;;;8.98;3.30;;;;;;;13.96;59.81;102632.34;5075367;28;20534;-35
2022/05/09 07:36:34;;;;;;;11.70;3.78;;;;;;;14.09;59.50;102620.59;5075958;28;20084;-34
2022/05/09 07:39:00;;;;;;;10.55;3.92;;;;;;;14.15;59.76;102619.75;5075484;28;20020;-34
2022/05/09 07:41:27;;;;;;;12.73;3.67;;;;;;;14.25;57.85;102619.31;5076447;28;20445;-35
2022/05/09 07:43:53;;;;;;;11.52;3.90;;;;;;;14.40;57.80;102619.94;5075761;28;20174;-34
2022/05/09 07:46:18;;;;;;;9.10;3.50;;;;;;;14.34;57.10;102605.25;5075900;28;20403;-35
2022/05/09 07:48:43;;;;;;;8.40;3.92;;;;;;;14.54;58.87;102618.88;5075289;28;20028;-35
2022/05/09 07:51:09;;;;;;;13.88;3.97;;;;;;;14.60;57.91;102618.00;5074994;28;20028;-35
2022/05/09 07:53:35;;;;;;;12.52;3.58;;;;;;;14.68;58.07;102628.63;5075149;28;20044;-35
2022/05/09 07:56:03;;;;;;;12.07;3.75;;;;;;;14.73;59.52;102611.66;5075512;28;20037;-35
2022/05/09 07:58:28;;;;;;;10.57;3.63;;;;;;;14.81;56.07;102618.75;5074795;28;20112;-35
2022/05/09 08:00:58;;;;;;;;;;;;;;;14.94;57.33;102618.72;5076191;28;20097;-35
2022/05/09 08:03:25;;;;;;;12.18;3.45;;;;;;;14.92;55.76;102612.63;5075183;28;20325;-35
2022/05/09 08:05:53;;;;;;;11.25;4.57;;;;;;;15.01;55.49;102624.94;5075314;28;20036;-34
2022/05/09 08:08:19;;;;;;;8.98;3.55;;;;;;;15.16;55.87;102620.03;5075004;28;20036;-35
2022/05/09 08:10:45;;;;;;;;;;;;;;;15.30;56.97;102612.63;5075757;28;20032;-35
2022/05/09 08:13:13;;;;;;;7.18;3.58;;;;;;;15.30;54.07;102626.25;5075260;28;20020;-36
2022/05/09 08:15:39;;;;;;;9.07;3.80;;;;;;;15.38;54.94;102617.81;5074818;28;20469;-35
2022/05/09 08:18:05;;;;;;;9.60;3.78;;;;;;;15.45;53.90;102612.31;5075101;28;20381;-35
2022/05/09 08:20:33;;;;;;;9.35;3.83;;;;;;;15.42;54.12;102596.38;5075545;28;20036;-35
2022/05/09 08:23:04;;;;;;;10.35;3.92;;;;;;;15.70;54.37;102613.19;5074489;28;20111;-35
2022/05/09 08:25:30;;;;;;;13.80;4.05;;;;;;;15.81;55.67;102613.53;5074126;28;20119;-35
2022/05/09 08:27:56;;;;;;;;;;;;;;;15.98;53.26;102616.53;5074588;28;20104;-35
2022/05/09 08:30:21;;;;;;;9.10;3.38;;;;;;;16.01;52.06;102618.84;5074463;28;20010;-35
2022/05/09 08:32:46;;;;;;;;;;;;;;;16.12;52.84;102616.19;5074639;28;20024;-35
2022/05/09 08:35:13;;;;;;;11.90;4.03;;;;;;;16.14;52.26;102614.06;5074476;28;19915;-34
2022/05/09 08:37:39;;;;;;;7.80;3.33;;;;;;;16.23;52.59;102612.72;5074351;28;20024;-35
2022/05/09 08:40:04;;;;;;;;;;;;;;;16.43;52.47;102617.94;5072407;28;20047;-35
2022/05/09 08:42:56;;;;;;;9.15;3.53;;;;;;;16.54;53.84;102619.09;5073261;28;19998;-34
2022/05/09 08:45:24;;;;;;;6.40;2.80;;;;;;;16.67;49.88;102616.19;5073665;28;20154;-34
2022/05/09 08:48:14;;;;;;;9.38;3.20;;;;;;;16.67;50.51;102601.72;5074753;28;20028;-34
2022/05/09 08:50:50;;;;;;;7.50;3.17;;;;;;;16.90;50.56;102598.31;5073722;28;20017;-34
2022/05/09 08:53:22;;;;;;;8.55;3.35;;;;;;;17.18;50.37;102604.00;5074625;28;20029;-34
2022/05/09 08:55:49;;;;;;;8.43;3.08;;;;;;;17.34;49.42;102602.50;5073634;28;20489;-34
2022/05/09 08:58:20;;;;;;;12.20;3.60;;;;;;;17.51;48.44;102613.59;5074010;28;20111;-34
2022/05/09 09:00:47;;;;;;;7.18;3.03;;;;;;;17.74;48.52;102607.38;5073330;28;20059;-34
2022/05/09 09:03:15;;;;;;;9.93;4.70;;;;;;;17.79;47.22;102606.66;5073692;28;20048;-35
2022/05/09 09:05:45;;;;;;;9.57;3.50;;;;;;;17.81;46.86;102596.31;5073857;28;20194;-35
2022/05/09 09:08:29;;;;;;;8.13;4.05;;;;;;;17.79;46.38;102591.06;5073561;28;20032;-35
2022/05/09 09:11:07;;;;;;;10.55;3.60;;;;;;;18.04;46.77;102590.84;5073279;28;20032;-35
2022/05/09 09:14:00;;;;;;;7.43;3.25;;;;;;;18.29;45.84;102582.34;5074089;28;20032;-35
2022/05/09 09:16:48;;;;;;;7.22;3.17;;;;;;;18.42;46.44;102587.59;5073453;28;20028;-35
2022/05/09 09:20:03;;;;;;;9.80;3.60;;;;;;;18.51;47.01;102588.88;5074214;28;20029;-35
2022/05/09 09:22:33;;;;;;;5.72;3.40;;;;;;;18.45;44.42;102580.81;5031201;28;20042;-35
2022/05/09 09:25:30;;;;;;;9.35;3.88;;;;;;;18.54;46.31;102568.38;5031193;28;20521;-35
2022/05/09 09:28:26;;;;;;;9.80;3.95;;;;;;;18.90;46.00;102578.19;5031511;28;20395;-35
2022/05/09 09:30:53;;;;;;;9.43;3.60;;;;;;;18.90;44.37;102580.09;5030769;28;20056;-41
2022/05/09 09:33:20;;;;;;;6.68;3.10;;;;;;;18.83;43.54;102582.13;5031155;28;20052;-35
2022/05/09 09:36:12;;;;;;;12.70;3.60;;;;;;;18.95;45.43;102574.69;5030291;28;20033;-35
2022/05/09 09:38:42;;;;;;;11.20;4.05;;;;;;;18.92;43.95;102566.97;5031409;28;20083;-35
2022/05/09 09:41:29;;;;;;;6.60;3.40;;;;;;;19.19;44.42;102556.22;5030380;28;20044;-35
2022/05/09 09:44:16;;;;;;;7.32;3.13;;;;;;;19.39;44.42;102569.47;5031398;28;20034;-34
2022/05/09 09:47:04;;;;;;;7.80;3.33;;;;;;;19.54;42.67;102556.00;5030859;28;20084;-35
2022/05/09 09:49:32;;;;;;;8.18;3.20;;;;;;;19.76;44.35;102575.28;5030656;28;20057;-35
2022/05/09 09:51:58;;;;;;;9.70;2.97;;;;;;;19.93;43.66;102572.53;5029116;28;20081;-35
2022/05/09 09:54:28;;;;;;;6.55;3.20;;;;;;;19.89;41.23;102563.13;5030086;28;20038;-35
2022/05/09 09:56:54;;;;;;;10.40;3.92;;;;;;;19.50;40.95;102555.66;5017282;28;20109;-35
2022/05/09 09:59:23;;;;;;;;;;;;;;;19.89;41.50;102557.66;5059037;28;20518;-35
2022/05/09 10:02:01;;;;;;;7.95;3.50;;;;;;;19.94;42.04;102546.75;5072788;28;19916;-35
2022/05/09 10:04:28;;;;;;;10.52;3.63;;;;;;;19.92;40.75;102547.00;5071619;28;20405;-35
2022/05/09 10:07:06;;;;;;;6.65;2.97;;;;;;;20.10;41.53;102547.78;5072898;28;20384;-34
2022/05/09 10:09:45;;;;;;;6.97;3.53;;;;;;;20.26;41.64;102549.66;5073329;28;20047;-35
2022/05/09 10:12:22;;;;;;;7.70;3.42;;;;;;;20.44;40.61;102546.56;5072328;28;20403;-35
2022/05/09 10:14:48;;;;;;;;;;;;;;;20.75;40.98;102536.00;5072169;28;20107;-35
2022/05/09 10:17:17;;;;;;;6.77;3.07;;;;;;;20.82;40.27;102533.84;5072749;28;20428;-35
2022/05/09 10:19:43;;;;;;;7.57;3.10;;;;;;;20.92;39.10;102527.63;5071094;28;20428;-35
2022/05/09 10:25:15;;;;;;;8.05;3.33;;;;;;;20.43;39.62;102522.94;5072086;28;20040;-35
2022/05/09 10:27:41;;;;;;;7.00;2.90;;;;;;;20.28;39.14;102520.00;5072671;28;20119;-35
2022/05/09 10:30:30;;;;;;;7.20;3.33;;;;;;;20.10;39.10;102512.91;5072796;28;20460;-35
2022/05/09 10:33:11;;;;;;;9.65;3.45;;;;;;;20.36;40.45;102518.75;5071144;28;20033;-35
2022/05/09 10:35:46;;;;;;;5.82;2.67;;;;;;;20.55;38.90;102504.44;5072405;28;20515;-35
2022/05/09 10:38:35;;;;;;;6.40;2.58;;;;;;;21.02;37.86;102513.97;5072105;28;20115;-35
2022/05/09 10:41:09;;;;;;;7.35;2.63;;;;;;;21.30;37.45;102512.84;5071665;28;20052;-35
2022/05/09 10:44:34;;;;;;;5.32;2.42;;;;;;;21.52;37.95;102502.59;5072573;28;20480;-35
2022/05/09 10:47:29;;;;;;;5.10;2.10;;;;;;;21.70;37.63;102512.34;5029593;28;20029;-35
2022/05/09 10:50:13;;;;;;;7.22;2.53;;;;;;;21.44;35.04;102505.00;5030477;28;20383;-35
2022/05/09 10:52:55;;;;;;;4.95;2.38;;;;;;;21.34;36.33;102501.09;5032233;28;20025;-35
2022/05/09 10:55:23;;;;;;;8.55;2.47;;;;;;;21.58;35.94;102497.97;5033035;28;20136;-35
2022/05/09 10:58:16;;;;;;;5.95;2.38;;;;;;;21.78;35.61;102495.31;5017568;28;20486;-35
2022/05/09 11:00:47;;;;;;;4.10;1.90;;;;;;;21.66;33.73;102485.59;5034082;28;20402;-35
2022/05/09 11:03:18;;;;;;;6.55;1.63;;;;;;;21.88;33.67;102482.72;5033522;28;20037;-35
2022/05/09 11:06:02;;;;;;;4.70;1.40;;;;;;;22.12;33.00;102485.88;5033884;28;20041;-35
2022/05/09 11:08:39;;;;;;;5.50;1.90;;;;;;;22.00;32.11;102466.78;5033110;28;20041;-35
2022/05/09 11:11:19;;;;;;;4.72;1.80;;;;;;;22.32;33.81;102481.28;5033639;28;20096;-35
2022/05/09 11:13:56;;;;;;;2.70;1.45;;;;;;;22.67;33.34;102476.94;5033910;28;20570;-35
2022/05/09 11:16:39;;;;;;;7.25;1.98;;;;;;;22.85;34.12;102468.16;5016974;28;20050;-35
2022/05/09 11:19:39;;;;;;;5.88;2.40;;;;;;;22.90;33.46;102470.13;5032575;28;20044;-35
2022/05/09 11:22:37;;;;;;;4.20;2.13;;;;;;;22.99;33.28;102474.00;5074291;28;20040;-35
2022/05/09 11:25:05;;;;;;;5.13;2.58;;;;;;;22.69;33.47;102465.63;5076299;28;20020;-35
2022/05/09 11:27:49;;;;;;;4.40;2.35;;;;;;;22.98;33.68;102461.28;5075331;28;20059;-35
2022/05/09 11:30:28;;;;;;;5.97;2.58;;;;;;;23.06;35.48;102452.47;5075383;28;20045;-35
2022/05/09 11:33:19;;;;;;;6.93;2.50;;;;;;;23.13;34.52;102457.69;5075634;28;20435;-35
2022/05/09 11:35:48;;;;;;;6.78;2.50;;;;;;;23.20;33.41;102451.91;5075569;28;20028;-35
2022/05/09 11:38:42;;;;;;;4.53;2.08;;;;;;;23.39;34.03;102447.47;5075595;28;20021;-35
2022/05/09 11:41:32;;;;;;;5.55;2.60;;;;;;;23.59;35.33;102450.19;5075201;28;20385;-35
2022/05/09 11:44:11;;;;;;;5.15;2.50;;;;;;;23.69;34.02;102448.53;5075183;28;20035;-35
2022/05/09 11:47:13;;;;;;;6.70;2.55;;;;;;;23.66;34.66;102443.56;5075764;28;20057;-35
2022/05/09 11:49:54;;;;;;;8.77;2.72;;;;;;;23.59;34.14;102438.31;5055870;28;20039;-35